Time;durP1;ratioP1;P1;durP2;ratioP2;P2;SDS_P1;SDS_P2;PMS_P1;PMS_P2;Temp;Humidity;BMP_temperature;BMP_pressure;BME280_temperature;BME280_humidity;BME280_pressure;Samples;Min_cycle;Max_cycle;Signal;HPM_P1;HPM_P2
2023/11/06 00:02:00;;;;;;;2.20;0.97;;;21.50;98.70;;;;;;5028362;28;20466;-57
2023/11/06 00:04:27;;;;;;;2.50;1.00;;;21.60;98.40;;;;;;5027481;28;20463;-57
2023/11/06 00:06:54;;;;;;;1.53;1.10;;;21.50;98.30;;;;;;5032706;28;20453;-60
2023/11/06 00:09:22;;;;;;;1.33;0.80;;;21.50;98.60;;;;;;5031120;28;20512;-57
2023/11/06 00:11:49;;;;;;;0.93;0.73;;;21.70;98.50;;;;;;5028650;28;21482;-55
2023/11/06 00:14:16;;;;;;;4.10;1.07;;;21.60;98.40;;;;;;5027867;28;20457;-58
2023/11/06 00:16:43;;;;;;;1.10;0.93;;;21.50;98.40;;;;;;5021919;28;20980;-57
2023/11/06 00:19:09;;;;;;;1.30;1.10;;;21.50;98.00;;;;;;5027714;28;20480;-57
2023/11/06 00:21:37;;;;;;;1.77;1.03;;;21.50;98.40;;;;;;5029408;28;20468;-58
2023/11/06 00:24:04;;;;;;;2.00;1.20;;;21.50;98.20;;;;;;5027231;28;20489;-58
2023/11/06 00:26:32;;;;;;;1.00;0.80;;;21.50;98.10;;;;;;5028926;28;20449;-57
2023/11/06 00:29:00;;;;;;;1.63;0.83;;;21.50;98.30;;;;;;5025024;28;20563;-58
2023/11/06 00:31:27;;;;;;;1.60;1.10;;;21.40;97.90;;;;;;5021250;28;20492;-58
2023/11/06 00:33:54;;;;;;;1.33;1.00;;;21.40;98.00;;;;;;5022037;28;20545;-59
2023/11/06 00:36:22;;;;;;;1.13;0.82;;;21.40;98.00;;;;;;5024283;28;20714;-55
2023/11/06 00:38:49;;;;;;;1.40;0.80;;;21.40;98.00;;;;;;5024462;28;20196;-59
2023/11/06 00:41:16;;;;;;;1.50;1.20;;;21.40;98.40;;;;;;5021230;28;20470;-58
2023/11/06 00:43:44;;;;;;;1.30;0.90;;;21.50;98.20;;;;;;5022191;28;20468;-57
2023/11/06 00:46:11;;;;;;;1.10;0.80;;;21.40;98.10;;;;;;5020625;28;20458;-58
2023/11/06 00:48:37;;;;;;;2.27;0.80;;;21.40;98.00;;;;;;5022243;28;20656;-56
2023/11/06 00:51:05;;;;;;;1.40;0.93;;;21.40;98.10;;;;;;5020113;28;21221;-61
2023/11/06 00:53:31;;;;;;;1.83;1.03;;;21.30;98.00;;;;;;5015421;28;20825;-58
2023/11/06 00:55:58;;;;;;;1.30;0.90;;;21.30;97.80;;;;;;5005112;28;20468;-58
2023/11/06 00:58:25;;;;;;;1.50;1.03;;;21.40;98.20;;;;;;5023633;28;20552;-55
2023/11/06 01:00:53;;;;;;;1.00;0.80;;;21.30;97.90;;;;;;5020758;28;20587;-58
2023/11/06 01:03:21;;;;;;;1.70;0.93;;;21.30;98.20;;;;;;5021250;28;20249;-56
2023/11/06 01:05:47;;;;;;;1.35;1.13;;;21.40;98.00;;;;;;5015549;28;20200;-58
2023/11/06 01:08:14;;;;;;;1.00;0.80;;;21.30;98.10;;;;;;5024523;28;20195;-57
2023/11/06 01:10:42;;;;;;;1.20;0.77;;;21.30;98.00;;;;;;5025510;28;20469;-57
2023/11/06 01:13:09;;;;;;;1.10;1.00;;;21.30;97.90;;;;;;5022528;28;20465;-60
2023/11/06 01:15:36;;;;;;;1.17;0.90;;;21.30;97.80;;;;;;5013185;28;20528;-59
2023/11/06 01:18:04;;;;;;;1.10;0.90;;;21.30;97.90;;;;;;5011670;28;20655;-59
2023/11/06 01:20:33;;;;;;;1.10;0.82;;;21.20;97.80;;;;;;5024512;28;20187;-54
2023/11/06 01:22:59;;;;;;;1.08;0.90;;;21.20;98.00;;;;;;5025119;28;20200;-55
2023/11/06 01:25:26;;;;;;;1.27;1.00;;;21.30;98.10;;;;;;5023732;28;20648;-60
2023/11/06 01:27:53;;;;;;;1.50;0.90;;;21.20;97.90;;;;;;5023423;28;20457;-58
2023/11/06 01:30:20;;;;;;;1.10;0.90;;;21.30;97.90;;;;;;5016770;28;20787;-57
2023/11/06 01:32:46;;;;;;;1.30;0.93;;;21.20;98.20;;;;;;5018474;28;20978;-58
2023/11/06 01:35:18;;;;;;;1.30;0.87;;;21.20;97.80;;;;;;5025288;28;20461;-60
2023/11/06 01:37:45;;;;;;;1.30;0.90;;;21.20;98.10;;;;;;5026896;28;20458;-58
2023/11/06 01:40:12;;;;;;;1.50;0.73;;;21.20;98.20;;;;;;5024494;28;20466;-57
2023/11/06 01:42:39;;;;;;;1.10;1.00;;;21.20;98.10;;;;;;5022431;28;20458;-58
2023/11/06 01:45:07;;;;;;;1.33;0.90;;;21.20;98.10;;;;;;5019647;28;20710;-58
2023/11/06 01:47:35;;;;;;;1.20;0.80;;;21.10;97.70;;;;;;5022949;28;20195;-56
2023/11/06 01:50:03;;;;;;;1.53;1.10;;;21.10;97.90;;;;;;5019213;28;20466;-57
2023/11/06 01:52:32;;;;;;;1.25;0.85;;;21.10;98.30;;;;;;5027406;28;20649;-57
2023/11/06 01:54:59;;;;;;;1.27;0.93;;;21.10;98.30;;;;;;5031699;28;20195;-57
2023/11/06 01:57:27;;;;;;;2.27;1.13;;;21.10;98.30;;;;;;5032954;28;20201;-56
2023/11/06 01:59:55;;;;;;;1.25;0.90;;;21.10;98.10;;;;;;5031435;28;20531;-56
2023/11/06 02:02:27;;;;;;;1.40;1.10;;;21.10;98.30;;;;;;5028738;28;20214;-55
2023/11/06 02:04:53;;;;;;;2.13;1.13;;;21.10;98.20;;;;;;5024373;28;20226;-57
2023/11/06 02:07:20;;;;;;;1.03;0.87;;;21.10;98.30;;;;;;5030642;28;20202;-59
2023/11/06 02:09:48;;;;;;;1.20;0.90;;;21.10;98.10;;;;;;5030057;28;21355;-58
2023/11/06 02:12:15;;;;;;;0.90;0.70;;;21.00;98.70;;;;;;5022749;28;20220;-59
2023/11/06 02:14:50;;;;;;;1.17;0.90;;;21.00;98.10;;;;;;5023939;28;20209;-59
2023/11/06 02:17:16;;;;;;;1.10;0.80;;;21.00;98.20;;;;;;5022326;28;20219;-55
2023/11/06 02:19:43;;;;;;;1.50;0.98;;;21.00;98.20;;;;;;5024406;28;20188;-58
2023/11/06 02:22:12;;;;;;;1.30;1.00;;;21.10;98.20;;;;;;5019138;28;20206;-59
2023/11/06 02:24:40;;;;;;;1.10;0.70;;;21.00;98.10;;;;;;5024904;28;20192;-58
2023/11/06 02:27:08;;;;;;;1.40;0.95;;;21.00;98.30;;;;;;5026130;28;20564;-58
2023/11/06 02:29:35;;;;;;;1.40;1.02;;;20.90;98.20;;;;;;5026303;28;20274;-58
2023/11/06 02:32:02;;;;;;;1.00;0.80;;;21.00;98.40;;;;;;5024621;28;20625;-57
2023/11/06 02:34:28;;;;;;;1.47;0.87;;;21.00;98.10;;;;;;5023027;28;20199;-59
2023/11/06 02:36:55;;;;;;;1.77;1.05;;;21.00;98.10;;;;;;5025503;28;20467;-57
2023/11/06 02:39:22;;;;;;;1.30;0.90;;;21.00;98.20;;;;;;5026497;28;20203;-59
2023/11/06 02:41:50;;;;;;;1.25;0.70;;;20.90;98.10;;;;;;5023135;28;20208;-59
2023/11/06 02:44:17;;;;;;;2.00;0.90;;;20.90;98.20;;;;;;5027041;28;20211;-59
2023/11/06 02:46:43;;;;;;;1.10;0.73;;;20.90;98.00;;;;;;5027456;28;20858;-60
2023/11/06 02:49:10;;;;;;;1.30;0.90;;;21.00;98.20;;;;;;5026430;28;20471;-56
2023/11/06 02:51:37;;;;;;;1.13;0.77;;;20.90;98.20;;;;;;5026325;28;20604;-58
2023/11/06 02:54:05;;;;;;;1.52;1.00;;;20.90;98.10;;;;;;5025036;28;21012;-57
2023/11/06 02:56:34;;;;;;;1.67;1.10;;;20.90;98.20;;;;;;5023327;28;20304;-58
2023/11/06 02:59:03;;;;;;;1.23;0.77;;;20.90;98.10;;;;;;5025933;28;20287;-58
2023/11/06 03:01:31;;;;;;;1.75;1.00;;;20.90;97.90;;;;;;5026341;28;20203;-59
2023/11/06 03:03:58;;;;;;;1.25;0.80;;;20.90;97.70;;;;;;5028442;28;20197;-58
2023/11/06 03:06:27;;;;;;;1.23;0.80;;;20.90;97.90;;;;;;5022825;28;20229;-57
2023/11/06 03:08:55;;;;;;;1.52;1.02;;;20.80;98.00;;;;;;5029149;28;20223;-59
2023/11/06 03:11:21;;;;;;;1.25;0.80;;;20.80;98.00;;;;;;5028344;28;20278;-57
2023/11/06 03:13:48;;;;;;;1.33;1.00;;;20.90;98.10;;;;;;5022666;28;20532;-59
2023/11/06 03:16:17;;;;;;;1.25;1.02;;;20.80;97.80;;;;;;5026662;28;20469;-58
2023/11/06 03:18:43;;;;;;;2.00;1.17;;;20.80;98.10;;;;;;5025820;28;20210;-58
2023/11/06 03:21:11;;;;;;;2.10;1.05;;;20.70;98.00;;;;;;5027800;28;20464;-57
2023/11/06 03:23:38;;;;;;;1.20;0.85;;;20.80;98.10;;;;;;5020317;28;20771;-59
2023/11/06 03:26:05;;;;;;;1.52;0.90;;;20.80;97.90;;;;;;5026348;28;20195;-58
2023/11/06 03:28:32;;;;;;;1.40;1.00;;;20.70;98.20;;;;;;5026763;28;20692;-58
2023/11/06 03:30:59;;;;;;;1.30;0.90;;;20.80;98.10;;;;;;5022812;28;20543;-56
2023/11/06 03:33:27;;;;;;;1.05;0.80;;;20.70;98.10;;;;;;5028063;28;20250;-60
2023/11/06 03:35:54;;;;;;;1.20;0.70;;;20.80;98.20;;;;;;5021881;28;20783;-56
2023/11/06 03:38:21;;;;;;;1.13;0.80;;;20.80;98.20;;;;;;5027206;28;20206;-57
2023/11/06 03:40:47;;;;;;;1.10;0.80;;;20.70;98.10;;;;;;5026958;28;20199;-60
2023/11/06 03:43:14;;;;;;;1.13;0.80;;;20.70;98.00;;;;;;5020911;28;20206;-57
2023/11/06 03:45:41;;;;;;;1.30;0.77;;;20.70;98.00;;;;;;5026949;28;20195;-59
2023/11/06 03:48:07;;;;;;;1.20;1.02;;;20.70;98.20;;;;;;5023292;28;20284;-60
2023/11/06 03:50:36;;;;;;;1.00;0.80;;;20.70;98.00;;;;;;5027577;28;20192;-57
2023/11/06 03:53:04;;;;;;;1.10;0.80;;;20.70;98.00;;;;;;5022429;28;20264;-57
2023/11/06 03:55:31;;;;;;;1.10;0.90;;;20.70;98.10;;;;;;5024538;28;20227;-54
2023/11/06 03:57:58;;;;;;;1.30;0.80;;;20.70;98.10;;;;;;5026917;28;20283;-60
2023/11/06 04:00:26;;;;;;;1.20;0.90;;;20.70;98.20;;;;;;5025535;28;20204;-58
2023/11/06 04:02:52;;;;;;;1.20;0.98;;;20.70;98.20;;;;;;5027342;28;20648;-53
2023/11/06 04:05:19;;;;;;;1.00;0.80;;;20.70;98.20;;;;;;5022729;28;20200;-59
2023/11/06 04:07:47;;;;;;;1.52;0.95;;;20.80;98.20;;;;;;5028791;28;20470;-56
2023/11/06 04:10:15;;;;;;;1.02;0.80;;;20.70;98.40;;;;;;5026834;28;20207;-56
2023/11/06 04:12:42;;;;;;;1.40;0.80;;;20.70;98.20;;;;;;5025347;28;20219;-58
2023/11/06 04:15:10;;;;;;;1.55;0.90;;;20.70;98.40;;;;;;5023189;28;20816;-60
2023/11/06 04:17:37;;;;;;;1.10;0.80;;;20.70;98.10;;;;;;5027382;28;20227;-57
2023/11/06 04:20:06;;;;;;;1.00;0.75;;;20.70;98.30;;;;;;5023170;28;20606;-57
2023/11/06 04:22:34;;;;;;;2.83;1.00;;;20.60;98.20;;;;;;5022373;28;20535;-60
2023/11/06 04:25:02;;;;;;;1.10;0.80;;;20.60;98.30;;;;;;5025456;28;20206;-56
2023/11/06 04:27:29;;;;;;;1.30;0.88;;;20.70;98.10;;;;;;5024379;28;20246;-55
2023/11/06 04:29:56;;;;;;;1.40;0.90;;;20.70;98.80;;;;;;5024863;28;20215;-59
2023/11/06 04:32:23;;;;;;;0.90;0.75;;;20.70;98.30;;;;;;5023553;28;20699;-59
2023/11/06 04:34:49;;;;;;;1.90;0.87;;;20.70;98.40;;;;;;5028125;28;20200;-58
2023/11/06 04:37:16;;;;;;;1.10;0.82;;;20.60;98.30;;;;;;5026904;28;20497;-57
2023/11/06 04:39:44;;;;;;;1.17;0.70;;;20.60;98.40;;;;;;5035474;28;20733;-59
2023/11/06 04:42:41;;;;;;;1.00;0.70;;;20.60;98.50;;;;;;5061749;28;20659;-57
2023/11/06 04:45:09;;;;;;;1.40;1.00;;;20.60;98.20;;;;;;5049023;28;20812;-59
2023/11/06 04:47:35;;;;;;;1.02;0.70;;;20.60;98.50;;;;;;5068150;28;20831;-60
2023/11/06 04:50:03;;;;;;;2.17;1.00;;;20.60;98.40;;;;;;5056771;28;20190;-56
2023/11/06 04:52:30;;;;;;;0.90;0.70;;;20.50;98.30;;;;;;5067381;28;20660;-60
2023/11/06 04:54:56;;;;;;;1.00;0.80;;;20.60;98.20;;;;;;5052397;28;20195;-60
2023/11/06 04:57:23;;;;;;;1.10;0.80;;;20.60;98.30;;;;;;5051938;28;20289;-57
2023/11/06 04:59:51;;;;;;;1.00;0.70;;;20.50;98.20;;;;;;5056915;28;20198;-54
2023/11/06 05:02:19;;;;;;;1.00;0.77;;;20.60;98.10;;;;;;5053789;28;20462;-58
2023/11/06 05:04:46;;;;;;;1.00;0.82;;;20.60;98.30;;;;;;5050333;28;20647;-55
2023/11/06 05:07:12;;;;;;;1.10;0.80;;;20.60;98.30;;;;;;5056123;28;20221;-57
2023/11/06 05:09:39;;;;;;;1.00;0.80;;;20.40;98.30;;;;;;5054918;28;20197;-58
2023/11/06 05:12:07;;;;;;;1.20;0.88;;;20.50;98.30;;;;;;5053802;28;20546;-59
2023/11/06 05:14:33;;;;;;;1.35;0.95;;;20.50;98.20;;;;;;5052211;28;20194;-58
2023/11/06 05:17:01;;;;;;;1.20;0.80;;;20.50;98.30;;;;;;5042953;28;20200;-58
2023/11/06 05:19:28;;;;;;;0.88;0.60;;;20.50;98.50;;;;;;5050064;28;20206;-58
2023/11/06 05:21:55;;;;;;;1.63;1.25;;;20.50;98.40;;;;;;5050271;28;20710;-60
2023/11/06 05:24:23;;;;;;;0.95;0.77;;;20.50;98.30;;;;;;5050463;28;20696;-58
2023/11/06 05:26:50;;;;;;;0.90;0.80;;;20.50;98.20;;;;;;5051523;28;20197;-59
2023/11/06 05:29:17;;;;;;;1.30;0.80;;;20.40;98.20;;;;;;5048519;28;20195;-59
2023/11/06 05:31:44;;;;;;;1.40;0.80;;;20.50;98.20;;;;;;5045935;28;20208;-61
2023/11/06 05:34:12;;;;;;;1.17;0.90;;;20.40;98.60;;;;;;5045895;28;20203;-61
2023/11/06 05:36:40;;;;;;;1.00;0.80;;;20.40;98.40;;;;;;5046723;28;20195;-57
2023/11/06 05:39:07;;;;;;;1.20;0.90;;;20.50;98.20;;;;;;5051445;28;20203;-58
2023/11/06 05:41:34;;;;;;;1.40;0.80;;;20.50;98.10;;;;;;5044933;28;20249;-58
2023/11/06 05:44:01;;;;;;;1.00;0.70;;;20.50;98.50;;;;;;5044977;28;20195;-58
2023/11/06 05:46:27;;;;;;;1.00;0.82;;;20.50;98.50;;;;;;5044709;28;20213;-59
2023/11/06 05:48:55;;;;;;;1.25;0.80;;;20.40;98.40;;;;;;5044442;28;20196;-56
2023/11/06 05:51:25;;;;;;;0.93;0.70;;;20.40;98.30;;;;;;5048025;28;21377;-56
2023/11/06 05:53:52;;;;;;;1.10;0.80;;;20.40;98.40;;;;;;5036719;28;20198;-57
2023/11/06 05:56:19;;;;;;;1.52;0.90;;;20.40;98.90;;;;;;5035117;28;20299;-60
2023/11/06 05:58:45;;;;;;;1.15;0.77;;;20.40;98.60;;;;;;5036983;28;20286;-54
2023/11/06 06:01:13;;;;;;;1.10;0.90;;;20.40;98.40;;;;;;5032562;28;20493;-57
2023/11/06 06:03:41;;;;;;;1.10;0.80;;;20.40;98.40;;;;;;5035181;28;20206;-57
2023/11/06 06:06:09;;;;;;;1.38;0.80;;;20.40;98.60;;;;;;5034541;28;20655;-58
2023/11/06 06:08:37;;;;;;;1.10;1.00;;;20.40;98.60;;;;;;5030729;28;20744;-59
2023/11/06 06:11:05;;;;;;;1.63;0.90;;;20.40;98.70;;;;;;5037415;28;20195;-59
2023/11/06 06:13:31;;;;;;;1.00;0.77;;;20.40;98.80;;;;;;5032131;28;20203;-57
2023/11/06 06:15:58;;;;;;;1.00;0.70;;;20.40;98.60;;;;;;5034733;28;20203;-58
2023/11/06 06:18:25;;;;;;;1.80;0.75;;;20.40;98.80;;;;;;5034467;28;20294;-57
2023/11/06 06:20:52;;;;;;;8.73;1.38;;;20.40;99.00;;;;;;5035610;28;20253;-57
2023/11/06 06:23:18;;;;;;;1.95;0.75;;;20.40;98.80;;;;;;5030726;28;20223;-56
2023/11/06 06:25:47;;;;;;;1.17;0.80;;;20.40;98.90;;;;;;5036758;28;20673;-58
2023/11/06 06:28:13;;;;;;;0.90;0.60;;;20.40;98.80;;;;;;5033008;28;20209;-58
2023/11/06 06:30:40;;;;;;;1.33;0.85;;;20.30;98.70;;;;;;5034884;28;20205;-57
2023/11/06 06:33:07;;;;;;;1.17;0.70;;;20.40;98.90;;;;;;5034678;28;20430;-52
2023/11/06 06:35:33;;;;;;;1.05;0.82;;;20.40;98.80;;;;;;5029251;28;20226;-56
2023/11/06 06:38:01;;;;;;;1.00;0.70;;;20.40;99.00;;;;;;5035427;28;20206;-55
2023/11/06 06:40:28;;;;;;;0.90;0.70;;;20.40;99.00;;;;;;5035447;28;20764;-56
2023/11/06 06:42:56;;;;;;;1.10;0.70;;;20.40;99.00;;;;;;5034961;28;20214;-55
2023/11/06 06:45:22;;;;;;;1.58;0.98;;;20.30;98.80;;;;;;5035827;28;20413;-54
2023/11/06 06:47:50;;;;;;;1.17;0.80;;;20.40;99.20;;;;;;5036633;28;20214;-57
2023/11/06 06:50:16;;;;;;;0.98;0.75;;;20.30;99.00;;;;;;5035250;28;20206;-55
2023/11/06 06:52:43;;;;;;;1.95;1.05;;;20.30;98.80;;;;;;5036636;28;20195;-57
2023/11/06 06:55:10;;;;;;;1.20;0.90;;;20.30;99.00;;;;;;5036112;28;20280;-55
2023/11/06 06:57:37;;;;;;;1.55;0.90;;;20.30;99.10;;;;;;5034296;28;20535;-56
2023/11/06 07:00:08;;;;;;;1.48;0.90;;;20.30;99.20;;;;;;5034816;28;20207;-57
2023/11/06 07:02:35;;;;;;;0.98;0.70;;;20.30;99.00;;;;;;5033800;28;20200;-56
2023/11/06 07:05:03;;;;;;;1.63;0.75;;;20.40;98.90;;;;;;5033376;28;20207;-58
2023/11/06 07:07:30;;;;;;;1.27;0.88;;;20.30;99.00;;;;;;5034651;28;20708;-56
2023/11/06 07:09:56;;;;;;;0.93;0.65;;;20.40;99.10;;;;;;5032229;28;20207;-54
2023/11/06 07:12:23;;;;;;;1.50;0.90;;;20.30;99.10;;;;;;5038099;28;20195;-57
2023/11/06 07:14:50;;;;;;;1.10;0.70;;;20.20;99.20;;;;;;5038894;28;20678;-58
2023/11/06 07:17:18;;;;;;;4.05;0.80;;;20.30;99.40;;;;;;5034221;28;20216;-55
2023/11/06 07:19:44;;;;;;;1.05;0.75;;;20.30;99.20;;;;;;5037163;28;20195;-54
2023/11/06 07:22:11;;;;;;;4.43;0.80;;;20.20;99.80;;;;;;5037857;28;20203;-50
2023/11/06 07:24:38;;;;;;;1.35;0.90;;;20.30;99.80;;;;;;5043266;28;20249;-57
2023/11/06 07:27:05;;;;;;;2.58;0.85;;;20.30;99.90;;;;;;5037082;28;20195;-54
2023/11/06 07:29:32;;;;;;;0.90;0.70;;;20.30;99.90;;;;;;5037304;28;20546;-54
2023/11/06 07:31:58;;;;;;;3.25;0.90;;;20.30;99.90;;;;;;5037275;28;20203;-56
2023/11/06 07:34:26;;;;;;;1.00;0.70;;;20.40;99.90;;;;;;5044907;28;20806;-52
2023/11/06 07:36:53;;;;;;;3.70;0.80;;;20.40;99.90;;;;;;5040808;28;20204;-57
2023/11/06 07:39:20;;;;;;;2.53;1.00;;;20.30;99.90;;;;;;5032949;28;20202;-53
2023/11/06 07:41:45;;;;;;;12.27;1.67;;;20.30;99.90;;;;;;5034915;28;20634;-55
2023/11/06 07:44:12;;;;;;;2.40;0.90;;;20.40;99.90;;;;;;5028536;28;20215;-55
2023/11/06 07:46:39;;;;;;;2.65;1.33;;;20.40;99.90;;;;;;5031628;28;20199;-55
2023/11/06 07:49:05;;;;;;;1.23;0.80;;;20.50;99.90;;;;;;5035736;28;20199;-59
2023/11/06 07:51:34;;;;;;;1.20;0.90;;;20.40;99.90;;;;;;5028517;28;20966;-57
2023/11/06 07:54:01;;;;;;;2.78;1.00;;;20.40;99.90;;;;;;5033237;28;20610;-59
2023/11/06 07:56:27;;;;;;;4.67;1.20;;;20.40;99.90;;;;;;5033774;28;20297;-60
2023/11/06 07:58:55;;;;;;;1.17;0.75;;;20.40;99.90;;;;;;5028589;28;20466;-59
2023/11/06 08:01:21;;;;;;;1.40;0.80;;;20.40;99.90;;;;;;5032985;28;20199;-58
2023/11/06 08:03:48;;;;;;;1.48;0.90;;;20.50;99.90;;;;;;5033252;28;20202;-55
2023/11/06 08:06:15;;;;;;;6.97;1.10;;;20.50;99.90;;;;;;5036441;28;20658;-58
2023/11/06 08:08:43;;;;;;;4.18;1.10;;;20.50;99.90;;;;;;5036219;28;20902;-57
2023/11/06 08:11:10;;;;;;;1.52;1.10;;;20.50;99.90;;;;;;5038430;28;20626;-59
2023/11/06 08:13:36;;;;;;;2.25;1.10;;;20.50;99.90;;;;;;5034403;28;20195;-57
2023/11/06 08:16:04;;;;;;;1.20;0.73;;;20.50;99.90;;;;;;5036848;28;20211;-57
2023/11/06 08:18:31;;;;;;;1.40;0.87;;;20.60;99.90;;;;;;5035820;28;20231;-60
2023/11/06 08:20:59;;;;;;;1.10;0.70;;;20.60;99.90;;;;;;5034560;28;20488;-58
2023/11/06 08:23:27;;;;;;;1.90;0.90;;;20.60;99.90;;;;;;5037152;28;20222;-59
2023/11/06 08:25:55;;;;;;;2.00;1.07;;;20.60;99.90;;;;;;5032769;28;20292;-57
2023/11/06 08:28:23;;;;;;;1.70;1.00;;;20.60;99.90;;;;;;5033020;28;20462;-59
2023/11/06 08:30:51;;;;;;;1.23;0.80;;;20.60;99.90;;;;;;5035234;28;20825;-57
2023/11/06 08:33:18;;;;;;;2.28;1.00;;;20.60;99.90;;;;;;5035726;28;20465;-59
2023/11/06 08:35:45;;;;;;;1.87;0.87;;;20.70;99.90;;;;;;5035897;28;20664;-56
2023/11/06 08:38:12;;;;;;;1.10;0.80;;;20.70;99.90;;;;;;5037531;28;20793;-58
2023/11/06 08:40:38;;;;;;;1.45;0.90;;;20.80;99.90;;;;;;5034100;28;20468;-58
2023/11/06 08:43:07;;;;;;;3.47;1.20;;;20.70;99.90;;;;;;5031857;28;20222;-58
2023/11/06 08:45:34;;;;;;;3.27;0.83;;;20.70;99.90;;;;;;5037074;28;20813;-59
2023/11/06 08:48:00;;;;;;;1.73;1.00;;;20.70;99.90;;;;;;5036192;28;20666;-56
2023/11/06 08:50:29;;;;;;;2.10;0.80;;;20.70;99.80;;;;;;5033178;28;20496;-60
2023/11/06 08:52:56;;;;;;;2.40;0.83;;;20.70;99.80;;;;;;5033245;28;20954;-59
2023/11/06 08:55:22;;;;;;;1.70;0.90;;;20.70;99.80;;;;;;5036710;28;20462;-59
2023/11/06 08:57:49;;;;;;;2.90;0.90;;;20.90;99.90;;;;;;5032237;28;20572;-59
2023/11/06 09:00:18;;;;;;;1.70;1.00;;;20.70;99.90;;;;;;5032164;28;20449;-58
2023/11/06 09:02:46;;;;;;;1.57;0.80;;;20.80;99.70;;;;;;5032147;28;20500;-60
2023/11/06 09:05:14;;;;;;;1.63;1.03;;;20.80;99.50;;;;;;5039366;28;20466;-57
2023/11/06 09:07:41;;;;;;;1.53;0.97;;;20.90;99.70;;;;;;5037376;28;20488;-60
2023/11/06 09:10:08;;;;;;;1.30;0.90;;;20.80;99.70;;;;;;5038245;28;20449;-56
2023/11/06 09:12:35;;;;;;;1.50;0.90;;;20.90;99.70;;;;;;5035766;28;20453;-58
2023/11/06 09:15:03;;;;;;;1.40;1.00;;;20.80;99.60;;;;;;5038367;28;20976;-59
2023/11/06 09:17:31;;;;;;;2.23;1.20;;;20.80;99.60;;;;;;5036422;28;20473;-58
2023/11/06 09:19:57;;;;;;;2.00;1.03;;;20.90;99.60;;;;;;5033977;28;20454;-58
2023/11/06 09:22:24;;;;;;;1.43;0.90;;;20.90;99.50;;;;;;5038101;28;20491;-60
2023/11/06 09:24:51;;;;;;;2.30;0.80;;;20.90;99.60;;;;;;5036647;28;20453;-60
2023/11/06 09:27:18;;;;;;;1.57;0.90;;;20.90;99.50;;;;;;5037391;28;20472;-60
2023/11/06 09:29:46;;;;;;;2.17;1.13;;;20.90;99.50;;;;;;5039343;28;20472;-60
2023/11/06 09:32:13;;;;;;;1.63;0.90;;;20.90;99.50;;;;;;5039257;28;20471;-57
2023/11/06 09:34:41;;;;;;;2.57;0.97;;;20.90;99.50;;;;;;5042854;28;20459;-60
2023/11/06 09:37:08;;;;;;;1.40;1.10;;;21.00;99.50;;;;;;5041571;28;20465;-57
2023/11/06 09:39:35;;;;;;;2.03;0.80;;;20.90;99.30;;;;;;5045732;28;20808;-59
2023/11/06 09:42:04;;;;;;;1.30;0.80;;;20.90;99.20;;;;;;5041112;28;20493;-58
2023/11/06 09:44:30;;;;;;;1.87;0.80;;;20.90;99.40;;;;;;5039620;28;20797;-60
2023/11/06 09:46:58;;;;;;;1.30;0.83;;;21.00;99.40;;;;;;5040366;28;20952;-58
2023/11/06 09:49:29;;;;;;;1.20;0.80;;;21.10;99.20;;;;;;5039515;28;20460;-56
2023/11/06 09:51:58;;;;;;;1.20;0.73;;;21.00;99.10;;;;;;5043247;28;20464;-59
2023/11/06 09:54:25;;;;;;;1.47;0.80;;;21.00;99.20;;;;;;5042456;28;20602;-59
2023/11/06 09:56:54;;;;;;;1.63;0.80;;;21.00;99.20;;;;;;5043287;28;20461;-58
2023/11/06 09:59:22;;;;;;;2.50;0.97;;;20.90;99.10;;;;;;5042463;28;20972;-58
2023/11/06 10:01:52;;;;;;;1.97;0.93;;;21.00;99.20;;;;;;5044043;28;20562;-55
2023/11/06 10:04:19;;;;;;;1.73;1.00;;;21.10;99.10;;;;;;5035803;28;21301;-59
2023/11/06 10:06:49;;;;;;;2.17;1.33;;;21.00;99.10;;;;;;5036133;28;20460;-58
2023/11/06 10:09:21;;;;;;;1.33;1.00;;;21.00;99.10;;;;;;5042221;28;20465;-56
2023/11/06 10:11:48;;;;;;;1.63;0.90;;;21.00;99.30;;;;;;5041367;28;20452;-56
2023/11/06 10:14:15;;;;;;;1.20;0.80;;;21.10;99.10;;;;;;5038618;28;20456;-58
2023/11/06 10:16:42;;;;;;;1.90;1.10;;;21.10;99.10;;;;;;5039790;28;20869;-61
2023/11/06 10:19:12;;;;;;;1.83;0.90;;;21.00;99.10;;;;;;5037287;28;20456;-60
2023/11/06 10:21:40;;;;;;;1.63;1.00;;;21.10;99.20;;;;;;5040018;28;20434;-60
2023/11/06 10:24:09;;;;;;;1.40;0.90;;;21.10;99.10;;;;;;5040582;28;20485;-58
2023/11/06 10:26:38;;;;;;;1.40;1.00;;;21.10;99.00;;;;;;5039740;28;20949;-59
2023/11/06 10:29:09;;;;;;;1.30;1.10;;;21.20;99.10;;;;;;5039615;28;20894;-55
2023/11/06 10:31:36;;;;;;;1.20;0.90;;;21.10;99.10;;;;;;5039029;28;20459;-61
2023/11/06 10:34:03;;;;;;;3.73;0.93;;;21.10;99.00;;;;;;5036147;28;21042;-60
2023/11/06 10:36:30;;;;;;;1.37;0.80;;;21.10;99.00;;;;;;5036588;28;20473;-60
2023/11/06 10:39:09;;;;;;;1.20;0.97;;;21.10;99.10;;;;;;5039963;28;20469;-56
2023/11/06 10:41:38;;;;;;;2.33;1.03;;;21.20;99.00;;;;;;5037452;28;21017;-56
2023/11/06 10:44:07;;;;;;;1.13;0.90;;;21.20;98.80;;;;;;5037667;28;20484;-60
2023/11/06 10:46:35;;;;;;;2.13;1.00;;;21.20;98.90;;;;;;5034195;28;20480;-58
2023/11/06 10:49:09;;;;;;;1.70;0.90;;;21.20;99.10;;;;;;5034129;28;20456;-61
2023/11/06 10:51:37;;;;;;;2.83;0.90;;;21.20;98.80;;;;;;5029387;28;21061;-58
2023/11/06 10:54:05;;;;;;;1.63;1.53;;;21.20;98.90;;;;;;5035924;28;20520;-58
2023/11/06 10:56:33;;;;;;;1.13;0.73;;;21.20;99.00;;;;;;5036095;28;20462;-56
2023/11/06 10:59:03;;;;;;;1.40;0.83;;;21.20;98.90;;;;;;5027119;28;20465;-58
2023/11/06 11:01:30;;;;;;;1.40;1.00;;;21.20;98.80;;;;;;5035236;28;20828;-59
2023/11/06 11:03:58;;;;;;;1.17;0.80;;;21.20;98.90;;;;;;5038193;28;20536;-56
2023/11/06 11:06:27;;;;;;;3.37;0.93;;;21.20;98.90;;;;;;5032071;28;20496;-59
2023/11/06 11:08:54;;;;;;;1.10;0.80;;;21.30;99.10;;;;;;5040567;28;20449;-58
2023/11/06 11:11:21;;;;;;;2.33;0.80;;;21.30;98.70;;;;;;5033580;28;20466;-58
2023/11/06 11:13:48;;;;;;;1.93;1.03;;;21.20;98.70;;;;;;5036596;28;20462;-59
2023/11/06 11:16:38;;;;;;;1.33;0.80;;;21.20;98.70;;;;;;5038355;28;20442;-60
2023/11/06 11:19:22;;;;;;;1.20;0.80;;;21.20;98.80;;;;;;5033886;28;20469;-56
2023/11/06 11:22:05;;;;;;;1.17;0.90;;;21.30;98.70;;;;;;5032486;28;20859;-56
2023/11/06 11:24:52;;;;;;;1.30;0.80;;;21.20;98.60;;;;;;5033486;28;20461;-60
2023/11/06 11:27:21;;;;;;;1.60;0.70;;;21.30;98.70;;;;;;5035937;28;20515;-61
2023/11/06 11:30:12;;;;;;;3.27;1.10;;;21.20;98.80;;;;;;5037304;28;20468;-57
2023/11/06 11:32:50;;;;;;;1.13;0.93;;;21.20;98.90;;;;;;5035249;28;20469;-60
2023/11/06 11:35:50;;;;;;;1.40;0.93;;;21.30;98.70;;;;;;5038318;28;20467;-56
2023/11/06 11:38:23;;;;;;;1.77;1.10;;;21.30;98.40;;;;;;4951872;28;20467;-56
2023/11/06 11:41:10;;;;;;;1.40;0.80;;;21.30;98.50;;;;;;4952885;28;20473;-59
2023/11/06 11:43:44;;;;;;;1.30;0.80;;;21.20;98.30;;;;;;5001890;28;20485;-59
2023/11/06 11:46:35;;;;;;;1.37;0.90;;;21.20;98.10;;;;;;5039366;28;20450;-57
2023/11/06 11:49:04;;;;;;;1.60;0.90;;;21.20;98.20;;;;;;5027257;28;20989;-59
2023/11/06 11:51:48;;;;;;;1.23;0.80;;;21.30;98.10;;;;;;5033122;28;20465;-60
2023/11/06 11:54:29;;;;;;;1.77;1.00;;;21.30;98.30;;;;;;5036376;28;20464;-58
2023/11/06 11:56:56;;;;;;;1.10;0.80;;;21.30;98.20;;;;;;5036145;28;20454;-59
2023/11/06 11:59:25;;;;;;;3.30;0.90;;;21.30;98.10;;;;;;5039196;28;20504;-60
2023/11/06 12:01:51;;;;;;;1.50;0.80;;;21.30;98.00;;;;;;5036480;28;20481;-56
2023/11/06 12:04:21;;;;;;;1.20;0.83;;;21.30;98.00;;;;;;5033613;28;20489;-56
2023/11/06 12:06:49;;;;;;;1.63;0.80;;;21.30;98.10;;;;;;5036064;28;20453;-59
2023/11/06 12:09:16;;;;;;;0.90;0.67;;;21.30;98.00;;;;;;5032170;28;20477;-58
2023/11/06 12:11:47;;;;;;;1.00;0.70;;;21.30;98.10;;;;;;5036313;28;20487;-59
2023/11/06 12:14:14;;;;;;;2.17;0.80;;;21.30;98.10;;;;;;5022975;28;21056;-58
2023/11/06 12:16:51;;;;;;;1.97;1.10;;;21.30;97.90;;;;;;5028399;28;21175;-55
2023/11/06 12:19:19;;;;;;;12.93;1.43;;;21.30;97.80;;;;;;5023800;28;20457;-55
2023/11/06 12:22:00;;;;;;;1.43;0.80;;;21.30;97.90;;;;;;5021784;28;20460;-53
2023/11/06 12:24:27;;;;;;;3.00;0.93;;;21.40;98.20;;;;;;5034754;28;20584;-55
2023/11/06 12:26:55;;;;;;;1.93;1.00;;;21.30;97.90;;;;;;5030390;28;20465;-56
2023/11/06 12:29:26;;;;;;;1.53;0.90;;;21.30;98.30;;;;;;5032793;28;20463;-52
2023/11/06 12:31:54;;;;;;;1.93;1.17;;;21.30;97.90;;;;;;5028202;28;20465;-51
2023/11/06 12:34:22;;;;;;;6.53;0.90;;;21.30;97.80;;;;;;5032193;28;20472;-56
2023/11/06 12:36:50;;;;;;;1.40;0.90;;;21.30;97.90;;;;;;5027038;28;20473;-56
2023/11/06 12:39:28;;;;;;;3.03;1.00;;;21.50;98.10;;;;;;5023279;28;20803;-53
2023/11/06 12:42:00;;;;;;;3.17;1.00;;;21.30;97.70;;;;;;5028986;28;20458;-58
2023/11/06 12:44:36;;;;;;;1.30;0.90;;;21.30;97.70;;;;;;5027107;28;20524;-52
2023/11/06 12:47:05;;;;;;;1.60;0.80;;;21.30;97.70;;;;;;5022427;28;20450;-54
2023/11/06 12:49:49;;;;;;;1.37;0.80;;;21.30;97.70;;;;;;5019998;28;21021;-53
2023/11/06 12:52:18;;;;;;;2.60;0.90;;;21.30;97.60;;;;;;5020991;28;20469;-51
2023/11/06 12:54:47;;;;;;;2.70;0.90;;;21.30;97.70;;;;;;5023358;28;21099;-52